Terminal Aerodrome Forecast
Issued by NWS

Home | Current Version | Previous Version | Text Only | Print | Product List | Glossary On
Versions: 1 2 3 4 5 6 7 8 9 10 11 12 13 14 15
621
FTUS44 KBMX 282340
TAFMGM
TAF
KMGM 282340Z 2900/2924 18007KT P6SM BKN150
     FM291000 15008KT 6SM BR OVC010
     FM291400 15012G22KT P6SM BKN025
     FM291600 15013G22KT P6SM SCT050 SCT250=

USA.gov is the U.S. government's official web portal to all federal, state and local government web resources and services.